createdAt,value
2023-10-29T00:01:28.333Z,1.48
2023-10-29T00:03:56.417Z,2.90
2023-10-29T00:06:23.285Z,2.47
2023-10-29T00:08:49.962Z,2.05
2023-10-29T00:11:16.647Z,2.47
2023-10-29T00:13:43.159Z,2.25
2023-10-29T00:16:09.791Z,3.38
2023-10-29T00:18:36.333Z,3.05
2023-10-29T00:21:04.921Z,2.05
2023-10-29T00:23:31.508Z,2.85
2023-10-29T00:25:58.992Z,1.70
2023-10-29T00:28:26.615Z,3.78
2023-10-29T00:30:56.359Z,2.55
2023-10-29T00:33:23.568Z,1.73
2023-10-29T00:35:50.212Z,3.45
2023-10-29T00:38:16.825Z,3.03
2023-10-29T00:40:43.326Z,0.73
2023-10-29T00:43:15.466Z,4.38
2023-10-29T00:45:43.872Z,0.90
2023-10-29T00:48:11.617Z,2.17
2023-10-29T00:50:39.219Z,2.95
2023-10-29T00:53:09.230Z,1.48
2023-10-29T00:55:36.877Z,4.28
2023-10-29T00:58:04.440Z,1.50
2023-10-29T01:00:30.987Z,2.17
2023-10-29T01:02:57.803Z,1.52
2023-10-29T01:05:24.629Z,2.05
2023-10-29T01:07:51.376Z,4.93
2023-10-29T01:10:17.870Z,2.28
2023-10-29T01:12:46.445Z,2.08
2023-10-29T01:15:12.974Z,3.28
2023-10-29T01:17:39.816Z,0.90
2023-10-29T01:20:06.924Z,3.72
2023-10-29T01:22:34.316Z,1.05
2023-10-29T01:25:00.938Z,2.58
2023-10-29T01:27:28.122Z,3.35
2023-10-29T01:29:54.866Z,2.33
2023-10-29T01:32:21.577Z,2.13
2023-10-29T01:34:48.287Z,4.78
2023-10-29T01:37:14.867Z,1.40
2023-10-29T01:39:41.371Z,2.22
2023-10-29T01:42:08.089Z,3.47
2023-10-29T01:44:34.660Z,2.90
2023-10-29T01:47:01.183Z,1.63
2023-10-29T01:49:27.713Z,3.45
2023-10-29T01:51:54.265Z,2.17
2023-10-29T01:54:22.045Z,1.42
2023-10-29T01:56:48.583Z,3.65
2023-10-29T01:59:15.752Z,2.50
2023-10-29T02:01:42.841Z,1.58
2023-10-29T02:04:10.522Z,3.20
2023-10-29T02:06:40.664Z,0.45
2023-10-29T02:09:11.180Z,0.75
2023-10-29T02:11:41.122Z,1.17
2023-10-29T02:14:07.984Z,2.58
2023-10-29T02:16:34.994Z,2.35
2023-10-29T02:19:01.536Z,2.50
2023-10-29T02:21:28.072Z,4.82
2023-10-29T02:23:56.188Z,2.05
2023-10-29T02:26:26.027Z,1.85
2023-10-29T02:28:52.655Z,3.08
2023-10-29T02:31:22.210Z,2.15
2023-10-29T02:33:49.285Z,2.75
2023-10-29T02:36:15.854Z,2.55
2023-10-29T02:38:44.193Z,1.65
2023-10-29T02:41:11.163Z,2.13
2023-10-29T02:43:44.069Z,2.72
2023-10-29T02:46:11.998Z,1.63
2023-10-29T02:48:39.078Z,1.67
2023-10-29T02:51:05.672Z,1.48
2023-10-29T02:53:32.414Z,3.55
2023-10-29T02:56:01.159Z,3.53
2023-10-29T02:58:27.816Z,1.90
2023-10-29T03:00:54.445Z,2.17
2023-10-29T03:03:21.343Z,1.05
2023-10-29T03:05:56.650Z,3.67
2023-10-29T03:08:24.139Z,1.35
2023-10-29T03:10:51.964Z,2.38
2023-10-29T03:13:18.626Z,2.22
2023-10-29T03:15:45.119Z,1.35
2023-10-29T03:18:13.060Z,1.20
2023-10-29T03:20:39.830Z,1.83
2023-10-29T03:23:06.447Z,2.08
2023-10-29T03:25:33.512Z,4.00
2023-10-29T03:28:00.163Z,2.53
2023-10-29T03:30:26.679Z,2.22
2023-10-29T03:32:53.410Z,2.03
2023-10-29T03:35:20.063Z,3.50
2023-10-29T03:37:46.696Z,1.48
2023-10-29T03:40:13.363Z,2.33
2023-10-29T03:42:39.996Z,1.10
2023-10-29T03:45:09.701Z,2.83
2023-10-29T03:47:36.821Z,1.42
2023-10-29T03:50:03.779Z,1.83
2023-10-29T03:52:30.407Z,1.13
2023-10-29T03:54:56.870Z,1.95
2023-10-29T03:57:23.369Z,1.77
2023-10-29T03:59:49.930Z,4.55
2023-10-29T04:02:16.473Z,3.70
2023-10-29T04:04:45.793Z,1.00
2023-10-29T04:07:17.318Z,1.25
2023-10-29T04:09:44.337Z,1.10
2023-10-29T04:12:10.779Z,2.58
2023-10-29T04:14:38.269Z,1.17
2023-10-29T04:17:05.485Z,6.32
2023-10-29T04:19:32.106Z,1.83
2023-10-29T04:21:58.713Z,1.50
2023-10-29T04:24:25.212Z,2.92
2023-10-29T04:26:51.918Z,2.13
2023-10-29T04:29:18.483Z,4.15
2023-10-29T04:31:44.965Z,1.23
2023-10-29T04:34:11.585Z,2.10
2023-10-29T04:36:38.068Z,1.38
2023-10-29T04:39:04.653Z,0.95
2023-10-29T04:41:31.191Z,0.90
2023-10-29T04:43:57.647Z,1.95
2023-10-29T04:46:24.222Z,3.08
2023-10-29T04:48:50.834Z,0.68
2023-10-29T04:51:17.332Z,1.77
2023-10-29T04:53:43.957Z,2.00
2023-10-29T04:56:10.454Z,2.08
2023-10-29T04:58:38.307Z,1.67
2023-10-29T05:01:04.884Z,1.30
2023-10-29T05:03:31.486Z,4.18
2023-10-29T05:05:58.044Z,1.45
2023-10-29T05:08:24.571Z,1.52
2023-10-29T05:10:51.109Z,1.63
2023-10-29T05:13:17.772Z,1.75
2023-10-29T05:15:44.505Z,1.23
2023-10-29T05:18:11.151Z,1.08
2023-10-29T05:20:38.528Z,3.58
2023-10-29T05:23:05.632Z,1.52
2023-10-29T05:25:32.200Z,2.58
2023-10-29T05:27:58.839Z,1.67
2023-10-29T05:30:25.490Z,2.00
2023-10-29T05:32:52.208Z,1.88
2023-10-29T05:35:18.897Z,2.58
2023-10-29T05:37:45.395Z,1.63
2023-10-29T05:40:12.431Z,2.67
2023-10-29T05:42:38.940Z,3.08
2023-10-29T05:45:08.159Z,1.98
2023-10-29T05:47:35.379Z,3.10
2023-10-29T05:50:05.332Z,2.95
2023-10-29T05:52:32.309Z,2.17
2023-10-29T05:55:01.933Z,1.98
2023-10-29T05:57:28.469Z,2.55
2023-10-29T05:59:55.115Z,1.05
2023-10-29T06:02:21.825Z,2.17
2023-10-29T06:04:48.662Z,2.30
2023-10-29T06:07:15.520Z,1.98
2023-10-29T06:09:42.199Z,1.52
2023-10-29T06:12:09.384Z,1.30
2023-10-29T06:14:35.970Z,3.58
2023-10-29T06:17:15.590Z,1.70
2023-10-29T06:19:46.233Z,0.88
2023-10-29T06:22:13.991Z,3.70
2023-10-29T06:24:40.495Z,2.00
2023-10-29T06:27:07.046Z,2.38
2023-10-29T06:29:33.897Z,1.25
2023-10-29T06:32:00.428Z,2.03
2023-10-29T06:34:26.975Z,2.60
2023-10-29T06:36:53.540Z,2.47
2023-10-29T06:39:20.058Z,1.52
2023-10-29T06:41:46.631Z,4.15
2023-10-29T06:44:13.302Z,3.25
2023-10-29T06:46:39.868Z,2.45
2023-10-29T06:49:06.625Z,2.72
2023-10-29T06:51:33.238Z,2.63
2023-10-29T06:53:59.937Z,3.22
2023-10-29T06:56:27.060Z,4.43
2023-10-29T06:58:53.688Z,4.65
2023-10-29T07:01:20.221Z,1.92
2023-10-29T07:03:47.611Z,5.22
2023-10-29T07:06:17.238Z,2.55
2023-10-29T07:08:46.547Z,3.90
2023-10-29T07:11:13.334Z,2.17
2023-10-29T07:13:39.908Z,2.65
2023-10-29T07:16:06.780Z,5.45
2023-10-29T07:18:33.486Z,3.10
2023-10-29T07:21:00.320Z,4.05
2023-10-29T07:23:27.404Z,5.38
2023-10-29T07:25:53.992Z,4.07
2023-10-29T07:28:20.865Z,5.22
2023-10-29T07:30:47.440Z,3.65
2023-10-29T07:33:14.040Z,4.15
2023-10-29T07:35:40.852Z,2.50
2023-10-29T07:38:13.694Z,6.28
2023-10-29T07:40:40.428Z,5.00
2023-10-29T07:43:07.038Z,5.30
2023-10-29T07:45:33.658Z,6.47
2023-10-29T07:48:00.378Z,3.28
2023-10-29T07:50:27.260Z,2.70
2023-10-29T07:52:54.109Z,4.35
2023-10-29T07:55:20.769Z,5.90
2023-10-29T07:57:47.383Z,6.00
2023-10-29T08:00:14.940Z,6.50
2023-10-29T08:02:45.349Z,5.65
2023-10-29T08:05:12.188Z,5.68
2023-10-29T08:07:40.380Z,4.28
2023-10-29T08:10:07.492Z,5.72
2023-10-29T08:12:35.732Z,4.68
2023-10-29T08:15:04.102Z,5.95
2023-10-29T08:17:31.085Z,6.20
2023-10-29T08:19:59.767Z,5.40
2023-10-29T08:22:26.692Z,4.32
2023-10-29T08:24:56.110Z,4.60
2023-10-29T08:27:22.703Z,6.82
2023-10-29T08:29:50.703Z,5.35
2023-10-29T08:32:17.584Z,4.65
2023-10-29T08:34:44.416Z,9.55
2023-10-29T08:37:14.069Z,5.18
2023-10-29T08:39:40.706Z,6.00
2023-10-29T08:42:10.223Z,5.78
2023-10-29T08:44:37.023Z,7.03
2023-10-29T08:47:03.872Z,5.82
2023-10-29T08:49:30.417Z,5.45
2023-10-29T08:51:56.981Z,6.28
2023-10-29T08:54:24.943Z,3.55
2023-10-29T08:56:52.106Z,7.55
2023-10-29T08:59:18.751Z,3.65
2023-10-29T09:01:45.505Z,5.00
2023-10-29T09:04:13.324Z,5.38
2023-10-29T09:06:40.262Z,9.07
2023-10-29T09:09:07.688Z,10.00
2023-10-29T09:11:34.291Z,7.70
2023-10-29T09:14:02.306Z,3.70
2023-10-29T09:16:28.890Z,4.43
2023-10-29T09:18:55.500Z,6.03
2023-10-29T09:21:22.084Z,2.95
2023-10-29T09:23:48.619Z,5.90
2023-10-29T09:26:17.419Z,4.05
2023-10-29T09:28:44.770Z,4.15
2023-10-29T09:31:20.669Z,5.85
2023-10-29T09:33:48.306Z,6.43
2023-10-29T09:36:14.966Z,5.50
2023-10-29T09:38:42.520Z,10.80
2023-10-29T09:41:09.245Z,7.88
2023-10-29T09:43:45.009Z,9.98
2023-10-29T09:46:12.514Z,5.50
2023-10-29T09:48:40.908Z,9.48
2023-10-29T09:51:08.114Z,5.05
2023-10-29T09:53:36.544Z,7.20
2023-10-29T09:56:05.154Z,6.90
2023-10-29T09:58:31.752Z,6.00
2023-10-29T10:00:59.386Z,9.27
2023-10-29T10:03:27.168Z,6.82
2023-10-29T10:05:55.226Z,10.25
2023-10-29T10:08:28.885Z,9.20
2023-10-29T10:10:57.160Z,6.78
2023-10-29T10:13:42.263Z,9.82
2023-10-29T10:16:14.482Z,5.72
2023-10-29T10:18:58.972Z,8.52
2023-10-29T10:21:45.016Z,7.22
2023-10-29T10:24:12.270Z,3.80
2023-10-29T10:26:40.233Z,9.65
2023-10-29T10:29:09.113Z,5.53
2023-10-29T10:31:39.020Z,6.25
2023-10-29T10:34:14.963Z,2.92
2023-10-29T10:36:43.210Z,5.80
2023-10-29T10:39:10.134Z,7.75
2023-10-29T10:41:44.789Z,8.88
2023-10-29T10:44:16.661Z,4.45
2023-10-29T10:46:48.651Z,10.98
2023-10-29T10:49:15.887Z,4.88
2023-10-29T10:51:42.639Z,8.68
2023-10-29T10:54:10.139Z,4.13
2023-10-29T10:56:38.171Z,5.90
2023-10-29T10:59:08.918Z,5.70
2023-10-29T11:01:39.465Z,7.43
2023-10-29T11:04:09.226Z,4.82
2023-10-29T11:06:38.914Z,3.58
2023-10-29T11:09:13.823Z,4.05
2023-10-29T11:11:53.313Z,5.22
2023-10-29T11:14:21.026Z,7.28
2023-10-29T11:16:51.942Z,6.60
2023-10-29T11:19:34.234Z,6.75
2023-10-29T11:22:20.453Z,6.82
2023-10-29T11:25:05.879Z,8.00
2023-10-29T11:27:42.035Z,6.47
2023-10-29T11:30:19.419Z,7.68
2023-10-29T11:32:47.690Z,4.60
2023-10-29T11:35:17.952Z,5.57
2023-10-29T11:37:45.447Z,2.90
2023-10-29T11:40:24.387Z,6.68
2023-10-29T11:42:54.322Z,4.50
2023-10-29T11:45:27.128Z,3.55
2023-10-29T11:48:12.794Z,6.90
2023-10-29T11:50:41.083Z,6.65
2023-10-29T11:53:07.928Z,8.73
2023-10-29T11:55:43.399Z,5.03
2023-10-29T11:58:09.929Z,6.07
2023-10-29T12:00:40.313Z,4.30
2023-10-29T12:03:11.155Z,4.05
2023-10-29T12:05:37.940Z,6.57
2023-10-29T12:08:05.369Z,6.50
2023-10-29T12:10:32.356Z,3.85
2023-10-29T12:12:58.912Z,10.45
2023-10-29T12:15:25.631Z,10.05
2023-10-29T12:17:52.725Z,8.57
2023-10-29T12:20:27.157Z,6.93
2023-10-29T12:23:04.118Z,9.18
2023-10-29T12:25:30.944Z,10.32
2023-10-29T12:27:57.925Z,8.63
2023-10-29T12:30:37.602Z,13.95
2023-10-29T12:33:30.771Z,6.25
2023-10-29T12:36:00.827Z,8.80
2023-10-29T12:38:27.693Z,8.95
2023-10-29T12:41:06.070Z,8.10
2023-10-29T12:43:48.303Z,8.80
2023-10-29T12:46:17.960Z,12.00
2023-10-29T12:49:00.945Z,10.77
2023-10-29T12:51:36.741Z,13.48
2023-10-29T12:54:18.056Z,8.70
2023-10-29T12:56:55.848Z,9.70
2023-10-29T12:59:23.075Z,10.30
2023-10-29T13:01:56.760Z,7.47
2023-10-29T13:04:25.004Z,11.00
2023-10-29T13:06:57.293Z,7.10
2023-10-29T13:09:26.188Z,9.55
2023-10-29T13:11:53.696Z,8.48
2023-10-29T13:14:20.811Z,8.63
2023-10-29T13:16:47.508Z,10.60
2023-10-29T13:19:14.432Z,12.25
2023-10-29T13:21:41.966Z,11.38
2023-10-29T13:24:09.394Z,10.85
2023-10-29T13:26:36.854Z,10.73
2023-10-29T13:29:03.491Z,9.82
2023-10-29T13:31:30.204Z,6.05
2023-10-29T13:33:58.279Z,7.45
2023-10-29T13:36:29.749Z,8.20
2023-10-29T13:38:56.435Z,13.10
2023-10-29T13:41:24.143Z,11.95
2023-10-29T13:43:50.796Z,11.38
2023-10-29T13:46:17.523Z,9.65
2023-10-29T13:48:44.142Z,7.22
2023-10-29T13:51:11.637Z,8.95
2023-10-29T13:53:39.121Z,7.55
2023-10-29T13:56:12.485Z,7.45
2023-10-29T13:58:40.275Z,12.52
2023-10-29T14:01:21.334Z,7.28
2023-10-29T14:03:50.001Z,4.95
2023-10-29T14:06:17.637Z,7.88
2023-10-29T14:08:45.044Z,6.55
2023-10-29T14:11:11.798Z,9.38
2023-10-29T14:13:38.372Z,5.30
2023-10-29T14:16:05.230Z,7.22
2023-10-29T14:18:31.952Z,9.15
2023-10-29T14:20:58.650Z,5.85
2023-10-29T14:23:25.236Z,6.93
2023-10-29T14:25:52.184Z,5.70
2023-10-29T14:28:19.104Z,4.28
2023-10-29T14:30:45.914Z,4.82
2023-10-29T14:33:12.825Z,4.40
2023-10-29T14:35:39.414Z,6.43
2023-10-29T14:38:07.149Z,5.13
2023-10-29T14:40:33.711Z,3.78
2023-10-29T14:43:14.967Z,4.18
2023-10-29T14:45:47.173Z,7.82
2023-10-29T14:48:14.184Z,5.93
2023-10-29T14:50:40.910Z,7.25
2023-10-29T14:53:09.009Z,5.80
2023-10-29T14:55:36.004Z,4.70
2023-10-29T14:58:03.027Z,5.28
2023-10-29T15:00:29.796Z,4.55
2023-10-29T15:02:56.470Z,5.10
2023-10-29T15:05:23.834Z,5.15
2023-10-29T15:07:50.482Z,6.47
2023-10-29T15:10:17.156Z,4.07
2023-10-29T15:12:44.323Z,5.82
2023-10-29T15:15:26.254Z,4.55
2023-10-29T15:17:56.665Z,2.58
2023-10-29T15:20:23.458Z,6.65
2023-10-29T15:22:50.519Z,4.95
2023-10-29T15:25:17.319Z,5.32
2023-10-29T15:27:44.046Z,5.93
2023-10-29T15:30:11.941Z,6.30
2023-10-29T15:32:39.044Z,3.55
2023-10-29T15:35:06.491Z,3.67
2023-10-29T15:37:33.165Z,4.65
2023-10-29T15:40:00.047Z,5.75
2023-10-29T15:42:27.047Z,4.60
2023-10-29T15:44:53.814Z,4.13
2023-10-29T15:47:23.899Z,5.00
2023-10-29T15:49:52.763Z,6.03
2023-10-29T15:52:22.327Z,4.85
2023-10-29T15:54:49.194Z,3.50
2023-10-29T15:57:16.008Z,2.47
2023-10-29T15:59:43.184Z,2.92
2023-10-29T16:02:09.702Z,4.13
2023-10-29T16:04:36.353Z,4.22
2023-10-29T16:07:04.476Z,3.78
2023-10-29T16:09:32.004Z,3.55
2023-10-29T16:12:00.171Z,3.92
2023-10-29T16:14:26.870Z,2.67
2023-10-29T16:16:53.630Z,4.43
2023-10-29T16:19:20.521Z,2.38
2023-10-29T16:21:47.028Z,2.33
2023-10-29T16:24:14.846Z,4.30
2023-10-29T16:26:41.957Z,2.97
2023-10-29T16:29:08.646Z,2.50
2023-10-29T16:31:35.272Z,3.53
2023-10-29T16:34:02.187Z,2.60
2023-10-29T16:36:28.980Z,3.22
2023-10-29T16:38:57.364Z,2.22
2023-10-29T16:41:23.939Z,3.38
2023-10-29T16:43:53.811Z,3.13
2023-10-29T16:46:20.703Z,3.33
2023-10-29T16:48:48.350Z,2.38
2023-10-29T16:51:14.926Z,3.13
2023-10-29T16:53:41.557Z,2.95
2023-10-29T16:56:09.718Z,2.22
2023-10-29T16:58:36.498Z,3.50
2023-10-29T17:01:04.297Z,1.65
2023-10-29T17:03:30.884Z,4.50
2023-10-29T17:05:58.255Z,2.22
2023-10-29T17:08:24.930Z,2.35
2023-10-29T17:10:51.566Z,4.55
2023-10-29T17:13:18.925Z,2.38
2023-10-29T17:15:45.863Z,3.35
2023-10-29T17:18:12.696Z,5.15
2023-10-29T17:20:39.296Z,3.13
2023-10-29T17:23:06.256Z,3.22
2023-10-29T17:25:36.878Z,1.95
2023-10-29T17:28:03.699Z,2.08
2023-10-29T17:30:30.366Z,2.80
2023-10-29T17:32:58.769Z,3.35
2023-10-29T17:35:30.874Z,2.95
2023-10-29T17:37:58.340Z,2.03
2023-10-29T17:40:27.700Z,2.60
2023-10-29T17:42:54.161Z,3.05
2023-10-29T17:45:21.498Z,3.25
2023-10-29T17:47:50.261Z,2.90
2023-10-29T17:50:16.929Z,5.07
2023-10-29T17:52:43.585Z,3.53
2023-10-29T17:55:10.082Z,3.45
2023-10-29T17:57:37.187Z,5.57
2023-10-29T18:00:08.212Z,3.58
2023-10-29T18:02:36.588Z,1.83
2023-10-29T18:05:04.363Z,2.63
2023-10-29T18:07:31.053Z,1.98
2023-10-29T18:09:57.580Z,2.67
2023-10-29T18:12:24.138Z,2.83
2023-10-29T18:14:51.652Z,3.30
2023-10-29T18:17:19.719Z,1.85
2023-10-29T18:19:47.392Z,1.98
2023-10-29T18:22:14.052Z,2.92
2023-10-29T18:24:40.689Z,2.30
2023-10-29T18:27:07.345Z,3.60
2023-10-29T18:29:33.896Z,2.60
2023-10-29T18:32:02.107Z,2.58
2023-10-29T18:34:28.969Z,1.25
2023-10-29T18:36:55.568Z,5.25
2023-10-29T18:39:22.081Z,1.73
2023-10-29T18:41:48.610Z,4.22
2023-10-29T18:44:15.074Z,2.58
2023-10-29T18:46:41.644Z,3.20
2023-10-29T18:49:08.118Z,1.20
2023-10-29T18:51:34.662Z,2.85
2023-10-29T18:54:01.299Z,3.53
2023-10-29T18:56:27.870Z,1.27
2023-10-29T18:58:57.184Z,2.33
2023-10-29T19:01:23.807Z,1.58
2023-10-29T19:03:50.618Z,2.63
2023-10-29T19:06:17.285Z,2.40
2023-10-29T19:08:43.884Z,1.92
2023-10-29T19:11:11.299Z,2.67
2023-10-29T19:13:38.080Z,1.42
2023-10-29T19:16:08.098Z,1.60
2023-10-29T19:18:35.604Z,2.05
2023-10-29T19:21:02.453Z,1.52
2023-10-29T19:23:29.197Z,1.85
2023-10-29T19:25:58.351Z,3.25
2023-10-29T19:28:25.175Z,2.00
2023-10-29T19:31:11.007Z,3.17
2023-10-29T19:33:41.731Z,1.70
2023-10-29T19:36:12.804Z,1.75
2023-10-29T19:38:40.082Z,2.20
2023-10-29T19:41:07.152Z,1.98
2023-10-29T19:43:34.158Z,1.88
2023-10-29T19:46:01.182Z,2.35
2023-10-29T19:48:28.869Z,2.40
2023-10-29T19:51:02.142Z,0.80
2023-10-29T19:53:29.952Z,2.15
2023-10-29T19:55:56.906Z,9.38
2023-10-29T19:58:24.052Z,3.63
2023-10-29T20:00:51.792Z,1.67
2023-10-29T20:03:19.308Z,2.25
2023-10-29T20:05:46.385Z,1.98
2023-10-29T20:08:12.951Z,2.03
2023-10-29T20:10:41.261Z,4.15
2023-10-29T20:13:08.146Z,3.05
2023-10-29T20:15:35.458Z,2.67
2023-10-29T20:18:02.444Z,3.13
2023-10-29T20:20:29.458Z,1.98
2023-10-29T20:22:57.438Z,2.17
2023-10-29T20:25:27.629Z,2.20
2023-10-29T20:27:54.990Z,1.60
2023-10-29T20:30:24.119Z,1.63
2023-10-29T20:32:51.040Z,3.28
2023-10-29T20:35:17.839Z,2.88
2023-10-29T20:37:44.640Z,3.17
2023-10-29T20:40:12.326Z,1.95
2023-10-29T20:42:39.181Z,1.40
2023-10-29T20:45:06.418Z,1.50
2023-10-29T20:47:33.051Z,3.20
2023-10-29T20:49:59.610Z,2.92
2023-10-29T20:52:26.273Z,2.47
2023-10-29T20:54:53.119Z,1.13
2023-10-29T20:57:20.084Z,4.35
2023-10-29T20:59:46.867Z,1.95
2023-10-29T21:02:13.584Z,2.40
2023-10-29T21:04:40.155Z,4.20
2023-10-29T21:07:06.838Z,2.30
2023-10-29T21:09:33.586Z,2.45
2023-10-29T21:12:00.098Z,4.13
2023-10-29T21:14:26.586Z,3.70
2023-10-29T21:16:54.164Z,2.10
2023-10-29T21:19:26.869Z,1.52
2023-10-29T21:21:56.656Z,2.70
2023-10-29T21:24:23.366Z,5.18
2023-10-29T21:26:52.464Z,2.15
2023-10-29T21:29:19.403Z,2.40
2023-10-29T21:31:45.983Z,1.45
2023-10-29T21:34:12.592Z,1.30
2023-10-29T21:36:39.289Z,3.60
2023-10-29T21:39:06.036Z,1.80
2023-10-29T21:41:32.619Z,4.65
2023-10-29T21:43:59.419Z,2.40
2023-10-29T21:46:26.603Z,4.38
2023-10-29T21:48:53.334Z,5.50
2023-10-29T21:51:20.177Z,4.50
2023-10-29T21:53:46.850Z,1.10
2023-10-29T21:56:13.416Z,1.88
2023-10-29T21:58:39.950Z,2.08
2023-10-29T22:01:06.609Z,2.58
2023-10-29T22:03:34.825Z,3.17
2023-10-29T22:06:07.626Z,2.65
2023-10-29T22:08:35.349Z,2.72
2023-10-29T22:11:04.490Z,3.28
2023-10-29T22:13:33.883Z,2.88
2023-10-29T22:16:19.815Z,3.45
2023-10-29T22:18:46.450Z,2.90
2023-10-29T22:21:13.610Z,3.38
2023-10-29T22:23:41.310Z,3.17
2023-10-29T22:26:09.587Z,3.47
2023-10-29T22:28:37.692Z,5.05
2023-10-29T22:31:04.880Z,3.15
2023-10-29T22:33:32.374Z,3.08
2023-10-29T22:36:04.123Z,4.75
2023-10-29T22:38:31.370Z,4.13
2023-10-29T22:41:01.715Z,3.13
2023-10-29T22:43:29.501Z,4.70
2023-10-29T22:45:56.457Z,1.63
2023-10-29T22:48:23.278Z,4.38
2023-10-29T22:50:49.910Z,3.08
2023-10-29T22:53:16.508Z,4.10
2023-10-29T22:55:43.167Z,3.47
2023-10-29T22:58:09.696Z,2.90
2023-10-29T23:00:36.342Z,4.60
2023-10-29T23:03:03.107Z,6.72
2023-10-29T23:05:36.373Z,3.72
2023-10-29T23:08:03.034Z,3.47
2023-10-29T23:10:31.556Z,5.30
2023-10-29T23:12:58.780Z,2.58
2023-10-29T23:15:25.381Z,5.75
2023-10-29T23:17:52.013Z,3.58
2023-10-29T23:20:18.605Z,5.18
2023-10-29T23:22:45.127Z,5.85
2023-10-29T23:25:12.258Z,3.55
2023-10-29T23:27:40.084Z,5.00
2023-10-29T23:30:07.667Z,3.55
2023-10-29T23:32:34.521Z,4.75
2023-10-29T23:35:01.096Z,5.05
2023-10-29T23:37:28.030Z,2.70
2023-10-29T23:39:55.118Z,4.68
2023-10-29T23:42:21.697Z,7.80
2023-10-29T23:44:48.472Z,3.05
2023-10-29T23:47:14.991Z,4.00
2023-10-29T23:49:41.511Z,4.20
2023-10-29T23:52:07.997Z,3.40
2023-10-29T23:54:34.545Z,3.63
2023-10-29T23:57:01.120Z,3.30
2023-10-29T23:59:27.654Z,2.58
